createdAt,value
2019-06-26T00:04:49.891Z,9.70
2019-06-26T00:09:55.476Z,9.95
2019-06-26T00:15:01.134Z,8.90
2019-06-26T00:20:07.111Z,7.85
2019-06-26T00:25:12.751Z,8.73
2019-06-26T00:30:19.280Z,7.92
2019-06-26T00:35:24.864Z,8.18
2019-06-26T00:40:30.558Z,7.37
2019-06-26T00:45:36.110Z,7.87
2019-06-26T00:50:41.681Z,9.15
2019-06-26T00:55:47.293Z,8.88
2019-06-26T01:00:52.838Z,10.50
2019-06-26T01:05:58.329Z,10.55
2019-06-26T01:11:04.037Z,10.60
2019-06-26T01:16:09.629Z,9.45
2019-06-26T01:21:15.224Z,8.93
2019-06-26T01:26:20.794Z,6.78
2019-06-26T01:31:26.360Z,8.03
2019-06-26T01:36:32.176Z,7.10
2019-06-26T01:41:37.819Z,7.17
2019-06-26T01:46:43.448Z,7.37
2019-06-26T01:51:49.014Z,6.45
2019-06-26T01:56:54.584Z,6.33
2019-06-26T02:02:00.202Z,5.35
2019-06-26T02:07:05.794Z,5.42
2019-06-26T02:12:11.431Z,4.83
2019-06-26T02:17:17.080Z,5.33
2019-06-26T02:22:22.646Z,7.85
2019-06-26T02:27:28.260Z,7.83
2019-06-26T02:32:33.799Z,6.35
2019-06-26T02:37:39.448Z,6.92
2019-06-26T02:42:45.083Z,7.15
2019-06-26T02:47:50.706Z,6.83
2019-06-26T02:52:56.409Z,7.53
2019-06-26T02:58:01.980Z,6.10
2019-06-26T03:03:07.527Z,6.25
2019-06-26T03:08:13.171Z,6.05
2019-06-26T03:13:18.698Z,6.50
2019-06-26T03:18:24.279Z,6.15
2019-06-26T03:23:29.969Z,6.35
2019-06-26T03:28:35.530Z,5.85
2019-06-26T03:33:41.061Z,5.65
2019-06-26T03:38:46.608Z,6.90
2019-06-26T03:43:52.169Z,6.37
2019-06-26T03:48:57.709Z,6.55
2019-06-26T03:54:03.252Z,5.78
2019-06-26T03:59:08.780Z,6.37
2019-06-26T04:04:14.354Z,6.03
2019-06-26T04:09:19.906Z,5.22
2019-06-26T04:14:25.497Z,6.45
2019-06-26T04:19:31.317Z,5.25
2019-06-26T04:24:36.949Z,5.70
2019-06-26T04:29:42.640Z,5.00
2019-06-26T04:34:48.214Z,5.42
2019-06-26T04:39:53.996Z,6.17
2019-06-26T04:44:59.667Z,4.90
2019-06-26T04:50:06.045Z,6.50
2019-06-26T04:55:11.894Z,6.85
2019-06-26T05:00:21.638Z,8.65
2019-06-26T05:05:38.540Z,8.70
2019-06-26T05:10:32.435Z,7.22
2019-06-26T05:15:38.115Z,8.30
2019-06-26T05:20:43.823Z,8.85
2019-06-26T05:25:49.484Z,8.15
2019-06-26T05:30:55.050Z,7.03
2019-06-26T05:36:00.936Z,7.90
2019-06-26T05:41:06.589Z,8.88
2019-06-26T05:46:12.207Z,7.37
2019-06-26T05:51:17.840Z,7.60
2019-06-26T05:56:23.371Z,6.67
2019-06-26T06:01:28.990Z,7.97
2019-06-26T06:06:41.607Z,6.35
2019-06-26T06:11:41.946Z,7.58
2019-06-26T06:16:48.181Z,8.18
2019-06-26T06:21:53.880Z,6.50
2019-06-26T06:26:59.573Z,5.15
2019-06-26T06:32:05.169Z,3.80
2019-06-26T06:37:10.838Z,3.17
2019-06-26T06:42:16.585Z,5.40
2019-06-26T06:47:22.640Z,2.98
2019-06-26T06:52:28.759Z,5.75
2019-06-26T06:57:34.456Z,5.90
2019-06-26T07:02:40.167Z,3.72
2019-06-26T07:07:45.845Z,3.10
2019-06-26T07:12:51.574Z,3.08
2019-06-26T07:17:57.227Z,3.70
2019-06-26T07:23:02.893Z,3.75
2019-06-26T07:28:09.438Z,3.98
2019-06-26T07:33:15.468Z,4.10
2019-06-26T07:38:21.157Z,3.50
2019-06-26T07:43:26.775Z,3.40
2019-06-26T07:48:32.382Z,2.02
2019-06-26T07:53:38.083Z,3.12
2019-06-26T07:58:43.723Z,4.60
2019-06-26T08:03:49.412Z,4.55
2019-06-26T08:08:55.060Z,4.22
2019-06-26T08:14:00.661Z,4.65
2019-06-26T08:19:06.449Z,4.80
2019-06-26T08:24:12.086Z,4.28
2019-06-26T08:29:17.857Z,5.33
2019-06-26T08:34:23.480Z,5.30
2019-06-26T08:39:29.010Z,5.10
2019-06-26T08:44:34.706Z,5.92
2019-06-26T08:49:40.362Z,5.83
2019-06-26T08:54:46.235Z,4.92
2019-06-26T08:59:52.007Z,6.33
2019-06-26T09:04:57.556Z,6.40
2019-06-26T09:10:03.313Z,5.05
2019-06-26T09:15:10.741Z,5.95
2019-06-26T09:20:21.865Z,5.92
2019-06-26T09:25:27.739Z,5.15
2019-06-26T09:30:33.460Z,5.42
2019-06-26T09:35:39.089Z,6.05
2019-06-26T09:40:44.681Z,5.85
2019-06-26T09:45:50.266Z,5.97
2019-06-26T09:50:56.090Z,6.33
2019-06-26T09:56:01.990Z,6.10
2019-06-26T10:01:07.603Z,5.40
2019-06-26T10:06:13.295Z,5.33
2019-06-26T10:11:19.161Z,4.45
2019-06-26T10:16:24.864Z,5.67
2019-06-26T10:21:30.490Z,3.60
2019-06-26T10:26:38.665Z,5.78
2019-06-26T10:31:44.530Z,5.22
2019-06-26T10:36:50.193Z,4.35
2019-06-26T10:41:55.983Z,5.80
2019-06-26T10:47:01.726Z,4.33
2019-06-26T10:52:07.367Z,5.30
2019-06-26T10:57:13.129Z,5.72
2019-06-26T11:02:18.702Z,5.80
2019-06-26T11:07:24.266Z,5.20
2019-06-26T11:12:30.015Z,4.90
2019-06-26T11:17:35.847Z,4.15
2019-06-26T11:22:41.561Z,5.90
2019-06-26T11:27:47.351Z,6.20
2019-06-26T11:32:53.039Z,4.60
2019-06-26T11:37:58.638Z,5.00
2019-06-26T11:43:04.352Z,4.62
2019-06-26T11:48:10.141Z,2.92
2019-06-26T11:53:16.029Z,3.65
2019-06-26T11:58:21.634Z,2.75
2019-06-26T12:03:27.475Z,3.25
2019-06-26T12:08:33.158Z,2.83
2019-06-26T12:13:38.823Z,3.25
2019-06-26T12:18:44.520Z,2.98
2019-06-26T12:23:50.268Z,2.87
2019-06-26T12:28:56.110Z,2.52
2019-06-26T12:34:01.774Z,2.90
2019-06-26T12:39:08.012Z,2.58
2019-06-26T12:44:13.614Z,2.77
2019-06-26T12:49:19.263Z,2.52
2019-06-26T12:54:25.168Z,2.75
2019-06-26T12:59:30.775Z,2.60
2019-06-26T13:04:36.406Z,2.08
2019-06-26T13:09:42.040Z,2.65
2019-06-26T13:14:47.756Z,2.50
2019-06-26T13:19:54.735Z,2.30
2019-06-26T13:25:00.494Z,3.17
2019-06-26T13:30:07.000Z,2.40
2019-06-26T13:35:12.835Z,2.35
2019-06-26T13:40:18.704Z,2.42
2019-06-26T13:45:24.341Z,2.50
2019-06-26T13:50:30.045Z,2.83
2019-06-26T13:55:35.828Z,2.47
2019-06-26T14:00:41.574Z,2.10
2019-06-26T14:05:47.336Z,2.37
2019-06-26T14:10:53.011Z,2.47
2019-06-26T14:15:58.709Z,2.30
2019-06-26T14:21:04.275Z,2.25
2019-06-26T14:26:10.095Z,2.60
2019-06-26T14:31:15.889Z,2.75
2019-06-26T14:36:23.431Z,2.80
2019-06-26T14:41:28.843Z,2.70
2019-06-26T14:46:34.488Z,3.00
2019-06-26T14:51:46.786Z,2.75
2019-06-26T14:56:47.681Z,2.80
2019-06-26T15:01:53.359Z,2.40
2019-06-26T15:06:59.267Z,3.37
2019-06-26T15:12:05.047Z,2.62
2019-06-26T15:17:10.737Z,3.08
2019-06-26T15:22:16.400Z,3.40
2019-06-26T15:27:22.264Z,3.67
2019-06-26T15:32:28.064Z,3.40
2019-06-26T15:37:35.545Z,3.10
2019-06-26T15:42:41.128Z,2.95
2019-06-26T15:47:46.918Z,2.77
2019-06-26T15:52:52.740Z,2.02
2019-06-26T15:57:58.539Z,2.80
2019-06-26T16:03:04.065Z,3.05
2019-06-26T16:08:09.684Z,2.45
2019-06-26T16:13:15.498Z,2.50
2019-06-26T16:18:43.354Z,2.83
2019-06-26T16:23:49.253Z,2.58
2019-06-26T16:28:54.937Z,3.33
2019-06-26T16:34:00.690Z,2.85
2019-06-26T16:39:08.323Z,2.77
2019-06-26T16:44:13.939Z,2.62
2019-06-26T16:49:19.845Z,2.22
2019-06-26T16:54:25.532Z,2.50
2019-06-26T16:59:31.192Z,2.62
2019-06-26T17:04:37.013Z,2.67
2019-06-26T17:09:44.436Z,2.50
2019-06-26T17:14:50.330Z,2.50
2019-06-26T17:19:55.989Z,2.60
2019-06-26T17:25:02.247Z,2.10
2019-06-26T17:30:08.661Z,1.92
2019-06-26T17:35:14.730Z,2.12
2019-06-26T17:40:20.620Z,2.42
2019-06-26T17:45:26.242Z,2.77
2019-06-26T17:50:31.961Z,2.33
2019-06-26T17:55:37.670Z,2.30
2019-06-26T18:00:44.104Z,2.80
2019-06-26T18:05:49.802Z,2.62
2019-06-26T18:10:55.462Z,2.55
2019-06-26T18:16:01.143Z,2.02
2019-06-26T18:21:06.820Z,3.15
2019-06-26T18:26:13.981Z,3.62
2019-06-26T18:31:19.698Z,3.00
2019-06-26T18:36:25.459Z,3.00
2019-06-26T18:41:31.132Z,2.80
2019-06-26T18:46:37.102Z,2.22
2019-06-26T18:51:42.802Z,2.65
2019-06-26T18:56:48.510Z,2.50
2019-06-26T19:01:54.150Z,2.35
2019-06-26T19:07:00.350Z,2.40
2019-06-26T19:12:06.285Z,2.42
2019-06-26T19:17:12.052Z,2.33
2019-06-26T19:22:17.813Z,2.58
2019-06-26T19:27:25.844Z,2.10
2019-06-26T19:32:32.014Z,1.98
2019-06-26T19:37:37.907Z,2.55
2019-06-26T19:42:43.748Z,2.45
2019-06-26T19:47:49.922Z,2.55
2019-06-26T19:52:55.602Z,2.27
2019-06-26T19:58:01.150Z,2.42
2019-06-26T20:03:06.725Z,2.30
2019-06-26T20:08:12.998Z,2.30
2019-06-26T20:13:19.023Z,2.43
2019-06-26T20:18:24.795Z,2.30
2019-06-26T20:23:30.391Z,2.08
2019-06-26T20:28:35.957Z,2.12
2019-06-26T20:33:41.542Z,2.40
2019-06-26T20:38:47.214Z,2.25
2019-06-26T20:43:52.846Z,2.15
2019-06-26T20:48:58.489Z,1.90
2019-06-26T20:54:04.052Z,1.87
2019-06-26T20:59:09.614Z,2.12
2019-06-26T21:04:15.155Z,2.07
2019-06-26T21:09:20.988Z,1.42
2019-06-26T21:14:26.703Z,1.80
2019-06-26T21:19:32.388Z,1.62
2019-06-26T21:24:38.342Z,1.47
2019-06-26T21:29:43.943Z,1.72
2019-06-26T21:34:52.725Z,1.47
2019-06-26T21:39:58.437Z,1.35
2019-06-26T21:45:04.309Z,1.75
2019-06-26T21:50:10.040Z,1.55
2019-06-26T21:55:15.887Z,1.20
2019-06-26T22:00:21.878Z,1.60
2019-06-26T22:05:28.086Z,1.80
2019-06-26T22:10:33.754Z,1.45
2019-06-26T22:15:39.310Z,1.87
2019-06-26T22:20:44.979Z,1.65
2019-06-26T22:25:51.505Z,1.77
2019-06-26T22:30:57.198Z,1.67
2019-06-26T22:36:02.967Z,2.00
2019-06-26T22:41:08.565Z,1.70
2019-06-26T22:46:14.116Z,1.92
2019-06-26T22:51:19.716Z,2.17
2019-06-26T22:56:25.780Z,0.98
2019-06-26T23:01:31.454Z,1.47
2019-06-26T23:06:37.605Z,1.42
2019-06-26T23:11:43.222Z,1.77
2019-06-26T23:16:48.995Z,1.70
2019-06-26T23:21:54.683Z,1.67
2019-06-26T23:27:00.480Z,1.95
2019-06-26T23:32:15.689Z,1.85
2019-06-26T23:37:33.918Z,2.15
2019-06-26T23:42:45.956Z,2.00
2019-06-26T23:47:59.555Z,1.95
2019-06-26T23:53:03.755Z,1.75
2019-06-26T23:58:09.316Z,2.00
